Princeton, IL (61356)

4:16 AM CDT on August 31, 2016 (GMT -0500)
APRSWXNET | | Change Station
Active Advisory: Flood Warning Active Notice: Local Storm Report

Elev 699 ft 41.36 °N, 89.47 °W | Updated 65 days ago

Partly Cloudy
Partly Cloudy
67 °F
Feels Like 67 °F
N
3
Wind Variable Wind from North
Gusts mph

Today
High -- | Low -- °F
--% Chance of Precip.
Yesterday
High -- | Low -- °F
Precip. -- in
Pressure 30.05 in
Visibility 10.0 miles
Clouds Clear
Dew Point 66 °F
Humidity 95%
Rainfall in
Snow Depth Not available.
6:23 AM 7:31 PM
Waning Crescent, 1% visible
METAR KVYS 310855Z AUTO 00000KT 10SM CLR 20/20 A3005 RMK AO2 T02030203
Pressure 30.05 in
Visibility 10.0 miles
Clouds Clear
Dew Point 66 °F
Humidity 95%
Rainfall in
Snow Depth Not available.
6:23 AM 7:31 PM
Waning Crescent, 1% visible
METAR KVYS 310855Z AUTO 00000KT 10SM CLR 20/20 A3005 RMK AO2 T02030203

10-Day Weather Forecast

Almanac

Astronomy

Aug. 31, 2016 Rise Set
Actual Time
Civil Twilight
Nautical Twilight
Astronomical Twilight
Moon
Length of Visible Light
Length of Day
Tomorrow will be .
, % of the Moon is Illuminated

Today's Extremes

State Highs State Lows

Community

WunderPhotos

Upload Photos

1,936,059 photos uploaded!

WunderBlog® & News

Nearby

Air Quality

  Air Quality AQ Index Pollutant
Not available.

Snow Depth

Station Depth Elevation

Earthquake Activity

City Distance Mag. Time & Date
Minimum magnitude displayed is 2.5.

Coastal Water Temperatures

Place Temperature

Stations

Nearby Weather Stations

Station Location Temp. Windchill Dew Point Humidity Wind Precip. Elev Updated Type
                   

Watches & Warnings

Flood Warning
Issued: 8:17 PM CDT Aug. 30, 2016 – National Weather Service

The Flood Warning continues for
the Illinois River at La Salle.
* Until late Friday night.
* At 745 PM Tuesday the stage was 22.2 feet.
* Flood stage is 20.0 feet.
* Minor flooding is occurring and minor flooding is forecast.
* Forecast... the river will continue to fall to below flood stage by
Friday evening.
* Impact... at 22.0 feet... Riverside parking lot at Starved Rock State
Park floods.


Lat... Lon 4137 8896 4135 8929 4126 8930 4128 8896



Izzi



817 PM CDT Tue Aug 30 2016

The Flood Warning continues for
the Illinois River at La Salle.
* Until late Friday night.
* At 745 PM Tuesday the stage was 22.2 feet.
* Flood stage is 20.0 feet.
* Minor flooding is occurring and minor flooding is forecast.
* Forecast... the river will continue to fall to below flood stage by
Friday evening.
* Impact... at 22.0 feet... Riverside parking lot at Starved Rock State
Park floods.


Lat... Lon 4137 8896 4135 8929 4126 8930 4128 8896



Izzi